Time;durP1;ratioP1;P1;durP2;ratioP2;P2;SDS_P1;SDS_P2;PMS_P1;PMS_P2;Temp;Humidity;BMP_temperature;BMP_pressure;BME280_temperature;BME280_humidity;BME280_pressure;Samples;Min_cycle;Max_cycle;Signal;HPM_P1;HPM_P2
2023/09/15 00:01:02;;;;;;;15.20;5.93;;;;;;;;;;5029674;28;20531;-60
2023/09/15 00:03:28;;;;;;;15.27;6.60;;;;;;;;;;5029131;28;20042;-59
2023/09/15 00:05:54;;;;;;;10.17;5.30;;;;;;;;;;5029257;28;20111;-60
2023/09/15 00:08:20;;;;;;;14.10;6.10;;;;;;;;;;5029304;28;20049;-60
2023/09/15 00:10:47;;;;;;;15.87;6.07;;;;;;;;;;5026821;28;20184;-60
2023/09/15 00:13:15;;;;;;;9.27;5.50;;;;;;;;;;5029479;28;20049;-60
2023/09/15 00:15:41;;;;;;;16.57;6.40;;;;;;;;;;5029478;28;20144;-60
2023/09/15 00:18:07;;;;;;;11.93;6.07;;;;;;;;;;5028774;28;20416;-60
2023/09/15 00:20:33;;;;;;;19.10;6.03;;;;;;;;;;5035864;28;20041;-60
2023/09/15 00:22:59;;;;;;;13.73;6.63;;;;;;;;;;5028771;28;20065;-59
2023/09/15 00:25:27;;;;;;;11.30;5.87;;;;;;;;;;5028383;28;20099;-60
2023/09/15 00:27:57;;;;;;;14.33;6.60;;;;;;;;;;5028344;28;20102;-60
2023/09/15 00:30:24;;;;;;;14.63;7.23;;;;;;;;;;5028871;28;20049;-60
2023/09/15 00:32:51;;;;;;;12.60;6.47;;;;;;;;;;5028969;28;20129;-60
2023/09/15 00:35:18;;;;;;;13.00;6.93;;;;;;;;;;5028800;28;20056;-60
2023/09/15 00:37:45;;;;;;;13.47;6.50;;;;;;;;;;5028443;28;20504;-60
2023/09/15 00:40:12;;;;;;;21.53;7.60;;;;;;;;;;5026925;28;20499;-60
2023/09/15 00:42:38;;;;;;;10.30;6.07;;;;;;;;;;5028782;28;20049;-60
2023/09/15 00:45:05;;;;;;;17.83;7.53;;;;;;;;;;5028467;28;20049;-60
2023/09/15 00:47:35;;;;;;;17.90;7.37;;;;;;;;;;5028796;28;20049;-60
2023/09/15 00:50:02;;;;;;;14.67;7.07;;;;;;;;;;5027405;28;20184;-60
2023/09/15 00:52:29;;;;;;;20.93;7.73;;;;;;;;;;5027455;28;20049;-60
2023/09/15 00:54:55;;;;;;;12.13;5.97;;;;;;;;;;5028826;28;20038;-60
2023/09/15 00:57:21;;;;;;;12.93;7.13;;;;;;;;;;5028245;28;20041;-60
2023/09/15 00:59:47;;;;;;;11.13;7.23;;;;;;;;;;5028587;28;20042;-60
2023/09/15 01:02:13;;;;;;;15.63;7.70;;;;;;;;;;5027518;28;20530;-60
2023/09/15 01:04:40;;;;;;;18.80;9.23;;;;;;;;;;5028526;28;20088;-60
2023/09/15 01:07:07;;;;;;;10.13;6.77;;;;;;;;;;5027306;28;20411;-60
2023/09/15 01:09:33;;;;;;;13.73;6.73;;;;;;;;;;5027845;28;20046;-59
2023/09/15 01:11:59;;;;;;;20.40;8.57;;;;;;;;;;5028251;28;20128;-60
2023/09/15 01:14:25;;;;;;;18.97;7.13;;;;;;;;;;5028034;28;20045;-60
2023/09/15 01:17:03;;;;;;;21.73;8.50;;;;;;;;;;5028019;28;20072;-60
2023/09/15 01:19:35;;;;;;;14.53;7.37;;;;;;;;;;5028051;28;20106;-60
2023/09/15 01:22:13;;;;;;;16.47;7.40;;;;;;;;;;5027890;28;20415;-60
2023/09/15 01:24:52;;;;;;;16.70;8.07;;;;;;;;;;5027860;28;20072;-60
2023/09/15 01:27:39;;;;;;;19.17;7.97;;;;;;;;;;5027128;28;20053;-60
2023/09/15 01:30:06;;;;;;;14.97;7.40;;;;;;;;;;5026453;28;20038;-60
2023/09/15 01:32:33;;;;;;;13.93;7.17;;;;;;;;;;5028159;28;20104;-60
2023/09/15 01:35:02;;;;;;;17.60;8.93;;;;;;;;;;5030246;28;20049;-60
2023/09/15 01:37:28;;;;;;;13.30;7.60;;;;;;;;;;5031359;28;20447;-60
2023/09/15 01:39:54;;;;;;;14.30;7.60;;;;;;;;;;5032102;28;20092;-60
2023/09/15 01:42:20;;;;;;;13.17;7.40;;;;;;;;;;5031952;28;20125;-60
2023/09/15 01:44:46;;;;;;;19.00;7.60;;;;;;;;;;5031779;28;20042;-60
2023/09/15 01:47:14;;;;;;;22.83;9.37;;;;;;;;;;5032222;28;20043;-60
2023/09/15 01:49:40;;;;;;;11.90;6.37;;;;;;;;;;5031236;28;20045;-60
2023/09/15 01:52:07;;;;;;;13.73;7.37;;;;;;;;;;5030859;28;20572;-60
2023/09/15 01:54:34;;;;;;;15.47;7.50;;;;;;;;;;5031436;28;20085;-60
2023/09/15 01:57:00;;;;;;;13.77;7.73;;;;;;;;;;5030962;28;20068;-60
2023/09/15 01:59:27;;;;;;;16.93;8.03;;;;;;;;;;5032038;28;20484;-59
2023/09/15 02:01:53;;;;;;;17.73;8.57;;;;;;;;;;5031830;28;20452;-60
2023/09/15 02:04:19;;;;;;;14.20;7.73;;;;;;;;;;5031232;28;20040;-60
2023/09/15 02:06:45;;;;;;;18.87;9.07;;;;;;;;;;5031345;28;20561;-60
2023/09/15 02:09:14;;;;;;;15.90;7.57;;;;;;;;;;5031022;28;20042;-60
2023/09/15 02:11:40;;;;;;;17.90;9.10;;;;;;;;;;5031151;28;20392;-60
2023/09/15 02:14:06;;;;;;;15.20;7.90;;;;;;;;;;5030367;28;20045;-60
2023/09/15 02:16:32;;;;;;;17.50;8.87;;;;;;;;;;5031452;28;20042;-60
2023/09/15 02:19:00;;;;;;;16.87;8.87;;;;;;;;;;5031293;28;20103;-60
2023/09/15 02:21:26;;;;;;;14.03;8.57;;;;;;;;;;5030360;28;20084;-60
2023/09/15 02:23:52;;;;;;;17.27;9.20;;;;;;;;;;5029962;28;20041;-60
2023/09/15 02:26:21;;;;;;;19.10;8.57;;;;;;;;;;5031113;28;20053;-60
2023/09/15 02:28:47;;;;;;;16.17;8.80;;;;;;;;;;5031087;28;20132;-60
2023/09/15 02:31:13;;;;;;;15.90;9.73;;;;;;;;;;5030862;28;20144;-60
2023/09/15 02:33:39;;;;;;;20.10;10.43;;;;;;;;;;5031055;28;20124;-60
2023/09/15 02:36:05;;;;;;;17.23;9.40;;;;;;;;;;5030374;28;20472;-60
2023/09/15 02:38:31;;;;;;;18.40;10.23;;;;;;;;;;5030905;28;20079;-60
2023/09/15 02:40:57;;;;;;;14.63;9.23;;;;;;;;;;5030879;28;20160;-60
2023/09/15 02:43:23;;;;;;;15.97;10.00;;;;;;;;;;5030894;28;20132;-60
2023/09/15 02:45:49;;;;;;;20.13;10.70;;;;;;;;;;5030730;28;20499;-60
2023/09/15 02:48:15;;;;;;;21.07;10.60;;;;;;;;;;5030303;28;20049;-60
2023/09/15 02:50:42;;;;;;;17.73;10.07;;;;;;;;;;5026916;28;20115;-60
2023/09/15 02:53:08;;;;;;;14.87;10.13;;;;;;;;;;5030382;28;20049;-60
2023/09/15 02:55:37;;;;;;;19.70;9.70;;;;;;;;;;5030615;28;20467;-60
2023/09/15 02:58:03;;;;;;;13.83;9.03;;;;;;;;;;5030068;28;20494;-60
2023/09/15 03:00:30;;;;;;;17.27;10.37;;;;;;;;;;5010739;28;20134;-59
2023/09/15 03:02:56;;;;;;;19.00;10.40;;;;;;;;;;5010605;28;20511;-60
2023/09/15 03:05:22;;;;;;;20.30;10.80;;;;;;;;;;5010767;28;20468;-60
2023/09/15 03:07:48;;;;;;;19.57;11.10;;;;;;;;;;5010824;28;20460;-59
2023/09/15 03:10:14;;;;;;;19.07;11.47;;;;;;;;;;5010108;28;20140;-60
2023/09/15 03:12:40;;;;;;;23.60;10.67;;;;;;;;;;5010796;28;20073;-59
2023/09/15 03:15:09;;;;;;;20.33;11.60;;;;;;;;;;5009945;28;20088;-60
2023/09/15 03:17:35;;;;;;;21.47;11.30;;;;;;;;;;5024832;28;20084;-60
2023/09/15 03:20:13;;;;;;;23.00;11.60;;;;;;;;;;5029327;28;20044;-60
2023/09/15 03:22:39;;;;;;;20.27;11.57;;;;;;;;;;5030474;28;20059;-59
2023/09/15 03:25:05;;;;;;;20.80;12.00;;;;;;;;;;5029531;28;20505;-59
2023/09/15 03:27:32;;;;;;;25.40;12.43;;;;;;;;;;5029302;28;20073;-60
2023/09/15 03:29:58;;;;;;;22.03;13.43;;;;;;;;;;5029815;28;20047;-60
2023/09/15 03:32:24;;;;;;;26.03;12.03;;;;;;;;;;5029996;28;20180;-60
2023/09/15 03:34:50;;;;;;;21.13;12.77;;;;;;;;;;5029342;28;20060;-59
2023/09/15 03:37:16;;;;;;;24.90;11.83;;;;;;;;;;5029566;28;20038;-59
2023/09/15 03:39:42;;;;;;;22.30;12.70;;;;;;;;;;5029759;28;20091;-59
2023/09/15 03:42:08;;;;;;;21.70;12.77;;;;;;;;;;5028544;28;20124;-60
2023/09/15 03:44:34;;;;;;;24.70;12.53;;;;;;;;;;5029109;28;20555;-60
2023/09/15 03:47:00;;;;;;;19.30;12.17;;;;;;;;;;5029474;28;20060;-60
2023/09/15 03:49:26;;;;;;;28.53;15.27;;;;;;;;;;5028432;28;20046;-60
2023/09/15 03:51:52;;;;;;;25.67;13.63;;;;;;;;;;5029328;28;20045;-60
2023/09/15 03:54:18;;;;;;;24.40;13.67;;;;;;;;;;5029724;28;20053;-60
2023/09/15 03:56:44;;;;;;;26.07;13.33;;;;;;;;;;5028634;28;20041;-60
2023/09/15 03:59:10;;;;;;;25.90;13.97;;;;;;;;;;5029518;28;20127;-59
2023/09/15 04:01:38;;;;;;;20.87;12.47;;;;;;;;;;5028872;28;20073;-60
2023/09/15 04:04:04;;;;;;;25.80;13.67;;;;;;;;;;5029321;28;20061;-60
2023/09/15 04:06:31;;;;;;;22.20;13.63;;;;;;;;;;5029684;28;20071;-59
2023/09/15 04:08:57;;;;;;;25.97;13.60;;;;;;;;;;5029613;28;20049;-60
2023/09/15 04:11:24;;;;;;;26.00;14.13;;;;;;;;;;5029006;28;20053;-60
2023/09/15 04:13:50;;;;;;;27.43;14.47;;;;;;;;;;5029471;28;20041;-59
2023/09/15 04:16:16;;;;;;;24.00;13.43;;;;;;;;;;5029362;28;20053;-60
2023/09/15 04:18:42;;;;;;;24.20;13.53;;;;;;;;;;5028426;28;20504;-60
2023/09/15 04:21:08;;;;;;;27.40;14.30;;;;;;;;;;5029379;28;20041;-60
2023/09/15 04:23:34;;;;;;;27.27;13.37;;;;;;;;;;5028523;28;20041;-59
2023/09/15 04:26:00;;;;;;;20.83;13.73;;;;;;;;;;5028665;28;20111;-60
2023/09/15 04:28:26;;;;;;;25.83;13.37;;;;;;;;;;5028315;28;20052;-60
2023/09/15 04:30:52;;;;;;;27.90;15.43;;;;;;;;;;5029000;28;20144;-60
2023/09/15 04:33:18;;;;;;;23.37;13.03;;;;;;;;;;5028413;28;20069;-60
2023/09/15 04:35:43;;;;;;;25.10;13.33;;;;;;;;;;5028754;28;20056;-60
2023/09/15 04:38:09;;;;;;;23.47;12.57;;;;;;;;;;5028732;28;20052;-60
2023/09/15 04:40:35;;;;;;;26.13;13.77;;;;;;;;;;5028694;28;20056;-60
2023/09/15 04:43:02;;;;;;;27.93;14.13;;;;;;;;;;5028347;28;20067;-59
2023/09/15 04:45:28;;;;;;;22.07;12.83;;;;;;;;;;5028510;28;20072;-60
2023/09/15 04:47:54;;;;;;;27.90;14.20;;;;;;;;;;5027744;28;20124;-60
2023/09/15 04:50:20;;;;;;;22.80;12.73;;;;;;;;;;5028821;28;20499;-60
2023/09/15 04:52:46;;;;;;;24.93;13.53;;;;;;;;;;5028618;28;20049;-60
2023/09/15 04:55:12;;;;;;;28.10;14.23;;;;;;;;;;5028427;28;20490;-60
2023/09/15 04:57:38;;;;;;;27.23;14.57;;;;;;;;;;5028267;28;20089;-60
2023/09/15 05:00:12;;;;;;;24.30;13.87;;;;;;;;;;5028159;28;20084;-60
2023/09/15 05:02:42;;;;;;;30.03;14.63;;;;;;;;;;5026812;28;20408;-60
2023/09/15 05:05:08;;;;;;;24.30;13.70;;;;;;;;;;5027737;28;20084;-60
2023/09/15 05:07:34;;;;;;;29.27;14.53;;;;;;;;;;5026274;28;20041;-59
2023/09/15 05:10:00;;;;;;;26.00;14.67;;;;;;;;;;5027381;28;20041;-60
2023/09/15 05:12:26;;;;;;;30.53;16.33;;;;;;;;;;5028146;28;20435;-60
2023/09/15 05:14:52;;;;;;;25.97;15.10;;;;;;;;;;5027587;28;20431;-60
2023/09/15 05:17:18;;;;;;;28.63;15.77;;;;;;;;;;5027803;28;20606;-60
2023/09/15 05:19:47;;;;;;;25.30;16.60;;;;;;;;;;5027744;28;20041;-60
2023/09/15 05:22:13;;;;;;;31.73;16.40;;;;;;;;;;5028007;28;20050;-60
2023/09/15 05:24:39;;;;;;;33.83;15.53;;;;;;;;;;5027930;28;20055;-60
2023/09/15 05:27:05;;;;;;;27.80;14.70;;;;;;;;;;5027647;28;20045;-60
2023/09/15 05:29:31;;;;;;;27.53;15.60;;;;;;;;;;5028041;28;20444;-60
2023/09/15 05:31:57;;;;;;;25.80;16.13;;;;;;;;;;5027690;28;20128;-60
2023/09/15 05:34:23;;;;;;;29.10;15.77;;;;;;;;;;5027765;28;20041;-60
2023/09/15 05:36:49;;;;;;;26.17;14.97;;;;;;;;;;5027313;28;20037;-60
2023/09/15 05:39:16;;;;;;;31.37;16.37;;;;;;;;;;5027017;28;20105;-60
2023/09/15 05:41:42;;;;;;;31.50;16.07;;;;;;;;;;5027583;28;20061;-60
2023/09/15 05:44:07;;;;;;;28.97;16.93;;;;;;;;;;5027736;28;20045;-60
2023/09/15 05:46:33;;;;;;;31.13;16.77;;;;;;;;;;5027715;28;20048;-60
2023/09/15 05:48:59;;;;;;;26.40;16.80;;;;;;;;;;5026903;28;20042;-60
2023/09/15 05:51:25;;;;;;;23.73;14.50;;;;;;;;;;5027490;28;20079;-60
2023/09/15 05:53:51;;;;;;;31.23;15.70;;;;;;;;;;5027615;28;20483;-60
2023/09/15 05:56:18;;;;;;;27.97;16.40;;;;;;;;;;5027562;28;20146;-60
2023/09/15 05:58:44;;;;;;;26.33;16.70;;;;;;;;;;5027637;28;20049;-60
2023/09/15 06:01:10;;;;;;;19.73;13.17;;;;;;;;;;5026135;28;20515;-60
2023/09/15 06:03:36;;;;;;;25.90;15.83;;;;;;;;;;5027213;28;20082;-62
2023/09/15 06:06:03;;;;;;;27.57;16.90;;;;;;;;;;5027471;28;20061;-60
2023/09/15 06:08:29;;;;;;;22.70;13.87;;;;;;;;;;5027222;28;20072;-60
2023/09/15 06:10:55;;;;;;;26.37;15.43;;;;;;;;;;5027518;28;20065;-60
2023/09/15 06:13:21;;;;;;;31.00;16.17;;;;;;;;;;5027814;28;20128;-60
2023/09/15 06:15:47;;;;;;;26.07;13.20;;;;;;;;;;5027917;28;20065;-60
2023/09/15 06:18:13;;;;;;;19.47;12.33;;;;;;;;;;5025864;28;20045;-60
2023/09/15 06:20:39;;;;;;;20.53;11.53;;;;;;;;;;5028333;28;20038;-60
2023/09/15 06:23:05;;;;;;;14.90;9.77;;;;;;;;;;5029991;28;20041;-60
2023/09/15 06:25:32;;;;;;;15.17;9.53;;;;;;;;;;5031239;28;20045;-60
2023/09/15 06:27:59;;;;;;;18.97;10.50;;;;;;;;;;5030592;28;20045;-60
2023/09/15 06:30:26;;;;;;;19.23;10.33;;;;;;;;;;5028294;28;20581;-60
2023/09/15 06:32:52;;;;;;;14.73;9.23;;;;;;;;;;5028780;28;20065;-60
2023/09/15 06:35:19;;;;;;;19.60;11.20;;;;;;;;;;5030592;28;20526;-60
2023/09/15 06:37:45;;;;;;;15.47;9.40;;;;;;;;;;5030608;28;20135;-60
2023/09/15 06:40:11;;;;;;;15.47;10.00;;;;;;;;;;5030444;28;20085;-60
2023/09/15 06:42:37;;;;;;;18.87;10.53;;;;;;;;;;5030690;28;20144;-60
2023/09/15 06:45:03;;;;;;;18.00;10.87;;;;;;;;;;5029977;28;20053;-60
2023/09/15 06:47:29;;;;;;;17.97;11.07;;;;;;;;;;5030811;28;20092;-61
2023/09/15 06:49:55;;;;;;;16.73;9.20;;;;;;;;;;5030224;28;20136;-62
2023/09/15 06:52:21;;;;;;;16.23;9.10;;;;;;;;;;5028221;28;20061;-61
2023/09/15 06:54:47;;;;;;;11.97;8.50;;;;;;;;;;5038652;28;20042;-61
2023/09/15 06:57:13;;;;;;;12.33;8.27;;;;;;;;;;5025016;28;20054;-61
2023/09/15 06:59:39;;;;;;;13.67;9.47;;;;;;;;;;5030296;28;20120;-61
2023/09/15 07:02:06;;;;;;;18.30;9.60;;;;;;;;;;5045242;28;20140;-61
2023/09/15 07:04:32;;;;;;;13.67;8.93;;;;;;;;;;5032464;28;20111;-61
2023/09/15 07:06:58;;;;;;;12.33;7.70;;;;;;;;;;5028300;28;20570;-61
2023/09/15 07:09:24;;;;;;;14.67;9.07;;;;;;;;;;5029407;28;20057;-61
2023/09/15 07:11:50;;;;;;;14.40;7.30;;;;;;;;;;5029270;28;20107;-61
2023/09/15 07:14:16;;;;;;;17.83;9.67;;;;;;;;;;5042320;28;20045;-61
2023/09/15 07:16:43;;;;;;;13.00;7.40;;;;;;;;;;5041258;28;20046;-61
2023/09/15 07:19:09;;;;;;;14.20;8.57;;;;;;;;;;5028993;28;20052;-61
2023/09/15 07:21:40;;;;;;;13.37;7.77;;;;;;;;;;5028625;28;20042;-60
2023/09/15 07:24:06;;;;;;;10.20;6.53;;;;;;;;;;5039476;28;20072;-61
2023/09/15 07:26:32;;;;;;;10.40;7.20;;;;;;;;;;5044830;28;20041;-61
2023/09/15 07:28:58;;;;;;;12.60;7.33;;;;;;;;;;5027174;28;20419;-61
2023/09/15 07:31:24;;;;;;;16.70;7.60;;;;;;;;;;5025204;28;20085;-61
2023/09/15 07:33:50;;;;;;;13.17;5.80;;;;;;;;;;5020761;28;20179;-59
2023/09/15 07:36:16;;;;;;;9.90;6.40;;;;;;;;;;5029000;28;20128;-60
2023/09/15 07:38:42;;;;;;;13.63;5.90;;;;;;;;;;5027157;28;20054;-60
2023/09/15 07:41:08;;;;;;;9.80;5.87;;;;;;;;;;5029412;28;20088;-59
2023/09/15 07:43:34;;;;;;;9.33;6.00;;;;;;;;;;5029385;28;20057;-59
2023/09/15 07:46:00;;;;;;;14.27;5.50;;;;;;;;;;5029287;28;20389;-60
2023/09/15 07:48:29;;;;;;;13.73;8.30;;;;;;;;;;5029199;28;20086;-60
2023/09/15 07:50:55;;;;;;;11.37;5.93;;;;;;;;;;5028774;28;20080;-61
2023/09/15 07:53:24;;;;;;;13.70;5.53;;;;;;;;;;5029252;28;20538;-61
2023/09/15 07:55:50;;;;;;;11.73;5.77;;;;;;;;;;5029031;28;20068;-60
2023/09/15 07:58:16;;;;;;;12.63;5.90;;;;;;;;;;5028845;28;20504;-61
2023/09/15 08:00:42;;;;;;;14.17;5.30;;;;;;;;;;5029149;28;20045;-60
2023/09/15 08:03:08;;;;;;;13.23;5.53;;;;;;;;;;5028912;28;20053;-60
2023/09/15 08:05:34;;;;;;;12.07;5.17;;;;;;;;;;5028752;28;20116;-60
2023/09/15 08:08:00;;;;;;;11.27;5.53;;;;;;;;;;5028825;28;20041;-60
2023/09/15 08:10:28;;;;;;;8.93;4.57;;;;;;;;;;5029012;28;20048;-60
2023/09/15 08:12:54;;;;;;;8.60;4.53;;;;;;;;;;5028821;28;20117;-60
2023/09/15 08:15:21;;;;;;;10.60;4.83;;;;;;;;;;5028239;28;20646;-60
2023/09/15 08:17:47;;;;;;;12.73;5.03;;;;;;;;;;5028528;28;20500;-60
2023/09/15 08:20:13;;;;;;;8.53;4.47;;;;;;;;;;5028528;28;20050;-60
2023/09/15 08:22:40;;;;;;;11.30;5.33;;;;;;;;;;5028878;28;20049;-60
2023/09/15 08:25:10;;;;;;;11.33;5.10;;;;;;;;;;5028323;28;20061;-60
2023/09/15 08:27:37;;;;;;;10.00;4.77;;;;;;;;;;5028017;28;20049;-60
2023/09/15 08:30:03;;;;;;;16.37;4.57;;;;;;;;;;5028470;28;20057;-60
2023/09/15 08:32:31;;;;;;;7.27;3.90;;;;;;;;;;5028587;28;20046;-59
2023/09/15 08:34:58;;;;;;;6.17;3.50;;;;;;;;;;5028472;28;20049;-59
2023/09/15 08:37:24;;;;;;;7.57;3.40;;;;;;;;;;5028173;28;20083;-59
2023/09/15 08:39:50;;;;;;;5.87;3.07;;;;;;;;;;5027811;28;20041;-59
2023/09/15 08:42:19;;;;;;;10.10;3.57;;;;;;;;;;5028498;28;20128;-59
2023/09/15 08:44:45;;;;;;;8.53;3.40;;;;;;;;;;5028025;28;20133;-60
2023/09/15 08:47:11;;;;;;;7.90;3.30;;;;;;;;;;5028194;28;20136;-60
2023/09/15 08:49:37;;;;;;;8.30;3.07;;;;;;;;;;5027935;28;20053;-60
2023/09/15 08:52:04;;;;;;;8.27;2.90;;;;;;;;;;5028153;28;20081;-60
2023/09/15 08:54:31;;;;;;;4.23;2.53;;;;;;;;;;5028122;28;20049;-60
2023/09/15 08:56:58;;;;;;;9.53;2.97;;;;;;;;;;5027854;28;20407;-60
2023/09/15 08:59:24;;;;;;;7.17;2.67;;;;;;;;;;5028126;28;20416;-60
2023/09/15 09:01:50;;;;;;;7.00;2.40;;;;;;;;;;5028007;28;20041;-60
2023/09/15 09:04:16;;;;;;;9.23;2.80;;;;;;;;;;5027569;28;20041;-61
2023/09/15 09:06:42;;;;;;;6.47;2.50;;;;;;;;;;5028191;28;20180;-61
2023/09/15 09:09:09;;;;;;;5.23;2.30;;;;;;;;;;5027773;28;20046;-61
2023/09/15 09:11:36;;;;;;;7.37;2.77;;;;;;;;;;5027935;28;20054;-61
2023/09/15 09:14:05;;;;;;;5.50;2.83;;;;;;;;;;5027314;28;20168;-61
2023/09/15 09:16:31;;;;;;;5.83;2.50;;;;;;;;;;5028224;28;20057;-60
2023/09/15 09:18:58;;;;;;;8.40;2.63;;;;;;;;;;5027896;28;20045;-60
2023/09/15 09:21:28;;;;;;;7.33;2.30;;;;;;;;;;5027982;28;20049;-61
2023/09/15 09:23:55;;;;;;;8.53;2.90;;;;;;;;;;5027241;28;20052;-61
2023/09/15 09:26:21;;;;;;;9.27;2.80;;;;;;;;;;5027402;28;20049;-60
2023/09/15 09:28:47;;;;;;;10.43;3.30;;;;;;;;;;5027134;28;20052;-61
2023/09/15 09:31:14;;;;;;;7.03;2.87;;;;;;;;;;5026584;28;20117;-61
2023/09/15 09:33:40;;;;;;;6.17;2.20;;;;;;;;;;5027190;28;20041;-60
2023/09/15 09:36:09;;;;;;;6.97;2.33;;;;;;;;;;5026997;28;20060;-61
2023/09/15 09:38:35;;;;;;;7.23;2.07;;;;;;;;;;5027574;28;20570;-61
2023/09/15 09:41:03;;;;;;;5.60;2.47;;;;;;;;;;5027145;28;20258;-61
2023/09/15 09:43:29;;;;;;;9.50;2.63;;;;;;;;;;5027062;28;20050;-61
2023/09/15 09:45:55;;;;;;;6.97;2.33;;;;;;;;;;5027801;28;20049;-61
2023/09/15 09:48:26;;;;;;;9.30;3.63;;;;;;;;;;5027638;28;20531;-61
2023/09/15 09:50:54;;;;;;;5.77;1.93;;;;;;;;;;5026264;28;20053;-61
2023/09/15 09:53:32;;;;;;;6.07;2.87;;;;;;;;;;5027367;28;20050;-61
2023/09/15 09:55:59;;;;;;;7.00;2.63;;;;;;;;;;5029054;28;20077;-61
2023/09/15 09:58:25;;;;;;;7.87;2.70;;;;;;;;;;5031355;28;20055;-61
2023/09/15 10:00:51;;;;;;;11.67;2.77;;;;;;;;;;5031259;28;20046;-61
2023/09/15 10:03:18;;;;;;;7.33;2.63;;;;;;;;;;5031254;28;20060;-60
2023/09/15 10:05:44;;;;;;;7.10;2.57;;;;;;;;;;5030905;28;20045;-60
2023/09/15 10:08:10;;;;;;;6.97;2.60;;;;;;;;;;5030965;28;20045;-61
2023/09/15 10:10:41;;;;;;;3.73;1.73;;;;;;;;;;5031351;28;20041;-60
2023/09/15 10:13:07;;;;;;;4.33;2.33;;;;;;;;;;5031331;28;20500;-61
2023/09/15 10:15:34;;;;;;;4.57;2.10;;;;;;;;;;5031059;28;20053;-61
2023/09/15 10:18:01;;;;;;;6.87;2.33;;;;;;;;;;5030903;28;20088;-61
2023/09/15 10:20:27;;;;;;;5.87;2.53;;;;;;;;;;5030696;28;20423;-61
2023/09/15 10:22:54;;;;;;;4.33;2.10;;;;;;;;;;5031025;28;20495;-61
2023/09/15 10:25:21;;;;;;;8.63;2.63;;;;;;;;;;5031048;28;20111;-60
2023/09/15 10:27:47;;;;;;;6.60;2.03;;;;;;;;;;5030838;28;20089;-61
2023/09/15 10:30:13;;;;;;;5.15;2.20;;;;;;;;;;5030307;28;20129;-61
2023/09/15 10:32:40;;;;;;;6.97;2.37;;;;;;;;;;5030962;28;20347;-61
2023/09/15 10:35:06;;;;;;;6.43;2.15;;;;;;;;;;5030903;28;20088;-60
2023/09/15 10:37:36;;;;;;;5.38;2.17;;;;;;;;;;5030600;28;20096;-60
2023/09/15 10:40:02;;;;;;;5.30;2.72;;;;;;;;;;5029859;28;20068;-60
2023/09/15 10:42:28;;;;;;;5.38;2.00;;;;;;;;;;5030791;28;20081;-61
2023/09/15 10:44:54;;;;;;;5.80;1.98;;;;;;;;;;5030063;28;20508;-61
2023/09/15 10:47:21;;;;;;;3.97;1.92;;;;;;;;;;5030385;28;20050;-60
2023/09/15 10:49:51;;;;;;;6.40;2.83;;;;;;;;;;5030568;28;20121;-60
2023/09/15 10:52:17;;;;;;;6.85;2.38;;;;;;;;;;5029680;28;20057;-60
2023/09/15 10:54:43;;;;;;;6.28;2.70;;;;;;;;;;5027424;28;20115;-60
2023/09/15 10:57:09;;;;;;;5.97;2.70;;;;;;;;;;5029695;28;20443;-60
2023/09/15 10:59:38;;;;;;;4.72;2.33;;;;;;;;;;5029061;28;20130;-60
2023/09/15 11:02:05;;;;;;;8.73;2.80;;;;;;;;;;5029728;28;20049;-61
2023/09/15 11:04:31;;;;;;;6.13;2.65;;;;;;;;;;5030336;28;20056;-60
2023/09/15 11:06:57;;;;;;;5.50;2.15;;;;;;;;;;5028741;28;20131;-61
2023/09/15 11:09:25;;;;;;;6.43;2.72;;;;;;;;;;5029077;28;20049;-61
2023/09/15 11:11:51;;;;;;;7.90;2.00;;;;;;;;;;5029827;28;20559;-61
2023/09/15 11:14:18;;;;;;;5.18;2.53;;;;;;;;;;5033494;28;20096;-60
2023/09/15 11:16:45;;;;;;;6.70;2.85;;;;;;;;;;5027854;28;20045;-60
2023/09/15 11:19:12;;;;;;;5.80;2.17;;;;;;;;;;5031671;28;20046;-60
2023/09/15 11:21:39;;;;;;;5.85;2.38;;;;;;;;;;5042229;28;20049;-60
2023/09/15 11:24:05;;;;;;;4.78;2.28;;;;;;;;;;5031128;28;20037;-60
2023/09/15 11:26:31;;;;;;;6.65;2.25;;;;;;;;;;5029348;28;20418;-61
2023/09/15 11:28:59;;;;;;;7.65;2.50;;;;;;;;;;5030095;28;20045;-60
2023/09/15 11:31:25;;;;;;;7.85;3.08;;;;;;;;;;5029425;28;20048;-61
2023/09/15 11:33:52;;;;;;;4.70;2.35;;;;;;;;;;5029193;28;20049;-60
2023/09/15 11:36:20;;;;;;;7.10;2.38;;;;;;;;;;5029379;28;20482;-60
2023/09/15 11:38:47;;;;;;;5.72;2.65;;;;;;;;;;5028958;28;20041;-60
2023/09/15 11:41:13;;;;;;;6.47;2.45;;;;;;;;;;5029317;28;20524;-60
2023/09/15 11:43:39;;;;;;;7.43;2.70;;;;;;;;;;5029831;28;20052;-60
2023/09/15 11:46:07;;;;;;;5.45;2.67;;;;;;;;;;5029506;28;20038;-60
2023/09/15 11:48:38;;;;;;;5.82;2.00;;;;;;;;;;5028951;28;20045;-61
2023/09/15 11:51:06;;;;;;;5.25;2.47;;;;;;;;;;5029499;28;20053;-60
2023/09/15 11:53:36;;;;;;;5.95;2.42;;;;;;;;;;5029598;28;20411;-61
2023/09/15 11:56:03;;;;;;;5.10;2.03;;;;;;;;;;5028514;28;20053;-60
2023/09/15 11:58:29;;;;;;;5.05;2.08;;;;;;;;;;5027452;28;20475;-60
2023/09/15 12:00:55;;;;;;;7.93;2.10;;;;;;;;;;5025714;28;20076;-60
2023/09/15 12:03:21;;;;;;;6.32;2.30;;;;;;;;;;5013289;28;20038;-60
2023/09/15 12:05:47;;;;;;;6.22;2.17;;;;;;;;;;5023130;28;20037;-60
2023/09/15 12:08:13;;;;;;;8.20;2.33;;;;;;;;;;5025660;28;20455;-60
2023/09/15 12:10:42;;;;;;;7.80;2.25;;;;;;;;;;5024108;28;20508;-61
2023/09/15 12:13:08;;;;;;;5.07;2.30;;;;;;;;;;5028707;28;20053;-60
2023/09/15 12:15:36;;;;;;;5.97;2.17;;;;;;;;;;5027993;28;20077;-60
2023/09/15 12:18:04;;;;;;;4.32;2.30;;;;;;;;;;5028250;28;20045;-61
2023/09/15 12:20:30;;;;;;;5.43;2.03;;;;;;;;;;5029097;28;20041;-61
2023/09/15 12:22:56;;;;;;;5.50;2.30;;;;;;;;;;5028304;28;20046;-60
2023/09/15 12:25:22;;;;;;;5.38;2.10;;;;;;;;;;5028206;28;20045;-60
2023/09/15 12:27:48;;;;;;;5.38;2.22;;;;;;;;;;5028767;28;20045;-60
2023/09/15 12:30:15;;;;;;;4.68;2.05;;;;;;;;;;5028375;28;20171;-60
2023/09/15 12:32:44;;;;;;;5.38;2.00;;;;;;;;;;5028131;28;20049;-60
2023/09/15 12:35:11;;;;;;;7.95;2.22;;;;;;;;;;5028309;28;20048;-60
2023/09/15 12:37:40;;;;;;;5.70;2.00;;;;;;;;;;5028607;28;20440;-60
2023/09/15 12:40:06;;;;;;;4.95;2.67;;;;;;;;;;5028127;28;20061;-60
2023/09/15 12:42:33;;;;;;;4.82;1.83;;;;;;;;;;5028468;28;20503;-60
2023/09/15 12:44:59;;;;;;;4.18;1.83;;;;;;;;;;5027875;28;20055;-60
2023/09/15 12:47:25;;;;;;;4.72;2.08;;;;;;;;;;5028157;28;20385;-60
2023/09/15 12:49:51;;;;;;;5.72;2.03;;;;;;;;;;5028287;28;20514;-60
2023/09/15 12:52:17;;;;;;;5.70;2.42;;;;;;;;;;5028189;28;20543;-60
2023/09/15 12:54:43;;;;;;;7.18;2.10;;;;;;;;;;5027927;28;20150;-60
2023/09/15 12:57:09;;;;;;;6.65;2.53;;;;;;;;;;5028222;28;20389;-60
2023/09/15 12:59:35;;;;;;;6.10;2.28;;;;;;;;;;5027563;28;20071;-60
2023/09/15 13:02:02;;;;;;;4.72;2.25;;;;;;;;;;5028064;28;20052;-60
2023/09/15 13:04:28;;;;;;;4.65;2.25;;;;;;;;;;5028147;28;20487;-60
2023/09/15 13:06:56;;;;;;;4.75;2.30;;;;;;;;;;5028021;28;20045;-60
2023/09/15 13:09:27;;;;;;;5.53;2.58;;;;;;;;;;5027661;28;20084;-61
2023/09/15 13:11:54;;;;;;;5.05;2.30;;;;;;;;;;5027715;28;20048;-60
2023/09/15 13:14:20;;;;;;;5.57;2.55;;;;;;;;;;5027944;28;20042;-60
2023/09/15 13:16:48;;;;;;;8.75;2.30;;;;;;;;;;5027906;28;20355;-60
2023/09/15 13:19:14;;;;;;;3.97;1.92;;;;;;;;;;5027754;28;20060;-61
2023/09/15 13:21:39;;;;;;;5.90;2.13;;;;;;;;;;5027241;28;20045;-60
2023/09/15 13:24:06;;;;;;;6.32;2.50;;;;;;;;;;5028175;28;20065;-60
2023/09/15 13:26:32;;;;;;;5.05;2.63;;;;;;;;;;5028016;28;20068;-60
2023/09/15 13:28:59;;;;;;;6.07;2.70;;;;;;;;;;5027696;28;20042;-60
2023/09/15 13:31:25;;;;;;;6.13;2.67;;;;;;;;;;5030684;28;20048;-60
2023/09/15 13:33:52;;;;;;;6.63;2.80;;;;;;;;;;5031705;28;20049;-60
2023/09/15 13:36:22;;;;;;;7.35;2.95;;;;;;;;;;5032253;28;20504;-60
2023/09/15 13:38:49;;;;;;;7.30;2.70;;;;;;;;;;5031682;28;20053;-60
2023/09/15 13:41:15;;;;;;;6.90;2.60;;;;;;;;;;5031624;28;20399;-60
2023/09/15 13:43:41;;;;;;;5.72;2.53;;;;;;;;;;5031788;28;20064;-60
2023/09/15 13:46:08;;;;;;;5.25;2.50;;;;;;;;;;5031119;28;20463;-61
2023/09/15 13:48:34;;;;;;;5.85;2.30;;;;;;;;;;5031883;28;20075;-61
2023/09/15 13:51:00;;;;;;;11.43;2.80;;;;;;;;;;5031563;28;20594;-61
2023/09/15 13:53:27;;;;;;;4.93;2.95;;;;;;;;;;5031896;28;20128;-60
2023/09/15 13:55:53;;;;;;;7.85;2.65;;;;;;;;;;5030975;28;20073;-60
2023/09/15 13:58:19;;;;;;;4.07;2.10;;;;;;;;;;5031229;28;20104;-61
2023/09/15 14:00:56;;;;;;;4.93;2.45;;;;;;;;;;5031536;28;20079;-60
2023/09/15 14:03:23;;;;;;;5.57;2.25;;;;;;;;;;5031101;28;20045;-61
2023/09/15 14:05:48;;;;;;;5.88;2.85;;;;;;;;;;5031073;28;20120;-61
2023/09/15 14:08:14;;;;;;;5.80;2.72;;;;;;;;;;5031009;28;20140;-61
2023/09/15 14:10:40;;;;;;;4.38;2.42;;;;;;;;;;5031260;28;20096;-61
2023/09/15 14:13:07;;;;;;;6.80;2.78;;;;;;;;;;5031148;28;20083;-60
2023/09/15 14:15:33;;;;;;;6.70;3.78;;;;;;;;;;5031334;28;20057;-60
2023/09/15 14:17:59;;;;;;;5.22;2.90;;;;;;;;;;5030614;28;20048;-60
2023/09/15 14:20:25;;;;;;;8.27;3.00;;;;;;;;;;5030680;28;20091;-61
2023/09/15 14:22:51;;;;;;;5.88;2.88;;;;;;;;;;5031122;28;20046;-60
2023/09/15 14:25:18;;;;;;;6.30;2.20;;;;;;;;;;5030885;28;20048;-60
2023/09/15 14:27:44;;;;;;;6.95;2.80;;;;;;;;;;5030620;28;20103;-61